Time;durP1;ratioP1;P1;durP2;ratioP2;P2;SDS_P1;SDS_P2;PMS_P1;PMS_P2;Temp;Humidity;BMP_temperature;BMP_pressure;BME280_temperature;BME280_humidity;BME280_pressure;Samples;Min_cycle;Max_cycle;Signal;HPM_P1;HPM_P2
2023/06/24 00:02:15;;;;;;;15.73;10.07;;;16.50;99.90;;;;;;5087355;28;20047;-47
2023/06/24 00:04:40;;;;;;;9.95;8.93;;;16.50;99.90;;;;;;5090224;28;20600;-52
2023/06/24 00:07:06;;;;;;;13.52;9.52;;;16.50;99.90;;;;;;5106506;28;20504;-53
2023/06/24 00:09:31;;;;;;;21.30;8.80;;;16.50;99.90;;;;;;5074155;28;20047;-50
2023/06/24 00:12:01;;;;;;;10.23;8.40;;;16.50;99.90;;;;;;5107328;28;20043;-50
2023/06/24 00:14:27;;;;;;;14.15;9.93;;;16.50;99.90;;;;;;5072111;28;20488;-49
2023/06/24 00:16:54;;;;;;;10.57;9.35;;;16.40;99.90;;;;;;5098144;28;20201;-51
2023/06/24 00:19:24;;;;;;;13.25;9.85;;;16.50;99.90;;;;;;5089736;28;20544;-53
2023/06/24 00:21:51;;;;;;;13.27;9.45;;;16.40;99.90;;;;;;5072166;28;20032;-51
2023/06/24 00:24:19;;;;;;;13.25;9.48;;;16.40;99.90;;;;;;5093468;28;20033;-49
2023/06/24 00:26:47;;;;;;;12.88;10.07;;;16.40;99.90;;;;;;5094185;28;20228;-53
2023/06/24 00:29:13;;;;;;;13.43;9.60;;;16.40;99.90;;;;;;5094553;28;20104;-49
2023/06/24 00:31:39;;;;;;;11.77;9.25;;;16.30;99.90;;;;;;5108527;27;20043;-51
2023/06/24 00:34:04;;;;;;;11.00;9.43;;;16.30;99.90;;;;;;5074329;28;20240;-54
2023/06/24 00:36:31;;;;;;;15.88;9.93;;;16.30;99.90;;;;;;5104913;28;20027;-51
2023/06/24 00:39:00;;;;;;;14.57;9.15;;;16.30;99.90;;;;;;5089826;27;20123;-49
2023/06/24 00:41:26;;;;;;;15.38;9.20;;;16.30;99.90;;;;;;5098243;28;20030;-53
2023/06/24 00:43:51;;;;;;;13.27;9.85;;;16.30;99.90;;;;;;5082164;28;20044;-53
2023/06/24 00:46:19;;;;;;;11.57;8.60;;;16.20;99.90;;;;;;5094250;28;20032;-52
2023/06/24 00:48:45;;;;;;;12.45;9.68;;;16.30;99.90;;;;;;5098904;28;20062;-50
2023/06/24 00:51:10;;;;;;;19.25;10.68;;;16.30;99.90;;;;;;5108065;28;20067;-54
2023/06/24 00:53:36;;;;;;;11.77;8.73;;;16.20;99.90;;;;;;5086324;28;20514;-52
2023/06/24 00:56:02;;;;;;;15.60;9.43;;;16.20;99.90;;;;;;5095176;28;20047;-49
2023/06/24 00:58:30;;;;;;;16.48;9.88;;;16.20;99.90;;;;;;5090628;28;20031;-52
2023/06/24 01:00:57;;;;;;;10.80;9.02;;;16.10;99.90;;;;;;5086019;28;20485;-50
2023/06/24 01:03:25;;;;;;;13.70;8.90;;;16.10;99.90;;;;;;5089735;28;20032;-49
2023/06/24 01:05:50;;;;;;;12.45;9.55;;;16.10;99.90;;;;;;5089637;28;20050;-51
2023/06/24 01:08:16;;;;;;;11.45;9.52;;;16.00;99.90;;;;;;5104843;28;20414;-50
2023/06/24 01:10:44;;;;;;;15.40;10.43;;;15.90;99.90;;;;;;5087638;28;20036;-53
2023/06/24 01:13:10;;;;;;;13.65;9.82;;;15.90;99.90;;;;;;5104916;28;20036;-51
2023/06/24 01:15:36;;;;;;;13.93;9.13;;;15.80;99.90;;;;;;5087775;28;20047;-49
2023/06/24 01:18:08;;;;;;;17.52;9.55;;;15.70;99.90;;;;;;5095554;28;20032;-52
2023/06/24 01:20:52;;;;;;;17.65;9.57;;;15.70;99.90;;;;;;5081142;28;20088;-53
2023/06/24 01:23:43;;;;;;;14.95;9.15;;;15.60;99.90;;;;;;5082274;28;20079;-48
2023/06/24 01:26:42;;;;;;;14.77;8.88;;;15.50;99.90;;;;;;5068211;28;20043;-51
2023/06/24 01:29:46;;;;;;;12.73;9.13;;;15.40;99.90;;;;;;5074526;28;20048;-50
2023/06/24 01:32:20;;;;;;;10.93;8.27;;;15.30;99.90;;;;;;5086995;28;20078;-48
2023/06/24 01:34:57;;;;;;;13.82;8.93;;;15.20;99.90;;;;;;5068803;28;20021;-52
2023/06/24 01:37:37;;;;;;;12.32;8.73;;;15.10;99.90;;;;;;5109771;28;20433;-51
2023/06/24 01:40:12;;;;;;;11.88;8.10;;;15.00;99.90;;;;;;5074590;28;20030;-52
2023/06/24 01:42:42;;;;;;;15.93;8.73;;;15.00;99.90;;;;;;5108104;28;20072;-51
2023/06/24 01:45:14;;;;;;;10.40;7.60;;;14.90;99.90;;;;;;5109748;28;20379;-52
2023/06/24 01:47:42;;;;;;;12.43;8.65;;;14.80;99.90;;;;;;5070996;28;20032;-53
2023/06/24 01:50:11;;;;;;;11.82;8.45;;;14.80;99.90;;;;;;5109488;28;20129;-52
2023/06/24 01:52:37;;;;;;;12.40;8.30;;;14.70;99.90;;;;;;5089277;28;20058;-52
2023/06/24 01:55:06;;;;;;;12.75;8.55;;;14.70;99.90;;;;;;5109544;28;20024;-52
2023/06/24 01:57:34;;;;;;;13.43;9.40;;;14.60;99.90;;;;;;5088248;28;20491;-53
2023/06/24 02:00:00;;;;;;;10.25;7.72;;;14.60;99.90;;;;;;5109370;28;20475;-51
2023/06/24 02:02:28;;;;;;;13.43;8.75;;;14.50;99.90;;;;;;5087831;28;20032;-51
2023/06/24 02:04:55;;;;;;;12.85;8.63;;;14.50;99.90;;;;;;5104892;27;20016;-52
2023/06/24 02:07:21;;;;;;;16.88;9.40;;;14.40;99.90;;;;;;5086117;28;20024;-52
2023/06/24 02:09:49;;;;;;;12.73;8.45;;;14.40;99.90;;;;;;5107160;28;20031;-53
2023/06/24 02:12:15;;;;;;;12.48;8.85;;;14.40;99.90;;;;;;5089025;28;20032;-54
2023/06/24 02:14:42;;;;;;;11.18;8.27;;;14.30;99.90;;;;;;5068504;28;20520;-52
2023/06/24 02:17:11;;;;;;;13.85;8.32;;;14.20;99.90;;;;;;5108288;28;20035;-51
2023/06/24 02:19:38;;;;;;;13.25;9.00;;;14.20;99.90;;;;;;5068476;28;20029;-53
2023/06/24 02:22:09;;;;;;;15.55;8.90;;;14.20;99.90;;;;;;5107986;28;20055;-50
2023/06/24 02:24:36;;;;;;;14.23;8.93;;;14.10;99.90;;;;;;5084032;28;20495;-52
2023/06/24 02:27:02;;;;;;;14.18;8.77;;;14.10;99.90;;;;;;5088784;28;20111;-49
2023/06/24 02:29:30;;;;;;;15.40;9.05;;;14.10;99.90;;;;;;5087212;28;20111;-52
2023/06/24 02:31:55;;;;;;;11.30;7.43;;;14.00;99.90;;;;;;5107789;28;20115;-50
2023/06/24 02:34:23;;;;;;;10.30;7.95;;;14.00;99.90;;;;;;5095028;28;20111;-50
2023/06/24 02:36:49;;;;;;;12.90;8.05;;;14.00;99.90;;;;;;5088497;28;20033;-53
2023/06/24 02:39:15;;;;;;;10.90;7.70;;;14.00;99.90;;;;;;5106289;28;20027;-51
2023/06/24 02:41:40;;;;;;;13.43;8.82;;;14.00;99.90;;;;;;5109133;28;20028;-53
2023/06/24 02:44:06;;;;;;;13.45;8.50;;;14.00;99.90;;;;;;5092773;28;20394;-53
2023/06/24 02:46:34;;;;;;;11.27;8.35;;;14.00;99.90;;;;;;5109027;28;20039;-52
2023/06/24 02:49:01;;;;;;;14.32;8.90;;;14.00;99.90;;;;;;5091887;28;20047;-51
2023/06/24 02:51:26;;;;;;;13.27;9.30;;;14.00;99.90;;;;;;5108613;28;20035;-53
2023/06/24 02:53:52;;;;;;;13.05;8.98;;;14.10;99.90;;;;;;5090931;28;20030;-52
2023/06/24 02:56:20;;;;;;;13.25;8.57;;;14.10;99.90;;;;;;5109282;28;20514;-50
2023/06/24 02:58:46;;;;;;;13.90;8.43;;;14.10;99.90;;;;;;5089530;28;20032;-53
2023/06/24 03:01:12;;;;;;;11.77;8.43;;;14.10;99.90;;;;;;5109026;28;20376;-52
2023/06/24 03:03:37;;;;;;;11.48;9.18;;;14.20;99.90;;;;;;5088885;28;20029;-53
2023/06/24 03:06:03;;;;;;;13.82;8.63;;;14.20;99.90;;;;;;5091764;28;20032;-50
2023/06/24 03:08:29;;;;;;;14.48;10.15;;;14.20;99.90;;;;;;5106228;28;20039;-54
2023/06/24 03:14:17;;;;;;;13.57;9.60;;;14.40;99.90;;;;;;5092188;28;20030;-50
2023/06/24 03:16:42;;;;;;;17.48;11.35;;;14.50;99.90;;;;;;5109287;28;20028;-52
2023/06/24 03:19:08;;;;;;;18.17;11.32;;;14.50;99.90;;;;;;5097115;28;20483;-53
2023/06/24 03:21:33;;;;;;;15.55;10.82;;;14.60;99.90;;;;;;5112396;28;20019;-53
2023/06/24 03:23:59;;;;;;;17.75;11.82;;;14.70;99.90;;;;;;5094179;28;20038;-51
2023/06/24 03:26:32;;;;;;;17.10;11.23;;;14.70;99.90;;;;;;5112615;27;20020;-52
2023/06/24 03:28:57;;;;;;;18.63;11.65;;;14.80;99.90;;;;;;5070679;28;20100;-52
2023/06/24 03:31:23;;;;;;;18.55;12.68;;;14.90;99.90;;;;;;5071357;28;20135;-54
2023/06/24 03:33:49;;;;;;;17.17;12.05;;;14.90;99.90;;;;;;5109231;28;20020;-52
2023/06/24 03:36:14;;;;;;;14.82;11.00;;;15.00;99.90;;;;;;5109988;28;20683;-55
2023/06/24 03:38:40;;;;;;;17.42;11.30;;;15.10;99.90;;;;;;5112218;28;20250;-54
2023/06/24 03:41:06;;;;;;;17.33;11.93;;;15.00;99.90;;;;;;5090891;28;20032;-55
2023/06/24 03:43:31;;;;;;;15.30;11.43;;;15.10;99.90;;;;;;5111971;28;20024;-56
2023/06/24 03:45:57;;;;;;;16.30;11.80;;;15.10;99.90;;;;;;5092164;28;20032;-52
2023/06/24 03:48:22;;;;;;;16.92;12.15;;;15.10;99.90;;;;;;5070833;28;20206;-54
2023/06/24 03:50:48;;;;;;;14.35;10.57;;;15.00;99.90;;;;;;5110331;28;20400;-55
2023/06/24 03:53:13;;;;;;;17.17;10.90;;;15.00;99.90;;;;;;5072419;28;20484;-56
2023/06/24 03:55:39;;;;;;;17.88;10.68;;;15.10;99.90;;;;;;5110353;28;20395;-54
2023/06/24 03:58:04;;;;;;;18.33;10.93;;;15.00;99.90;;;;;;5072044;28;20129;-54
2023/06/24 04:00:29;;;;;;;15.18;11.07;;;15.00;99.90;;;;;;5110594;28;20507;-56
2023/06/24 04:02:55;;;;;;;14.48;10.82;;;15.00;99.90;;;;;;5074362;28;20378;-53
2023/06/24 04:05:24;;;;;;;22.65;12.07;;;15.00;99.90;;;;;;5096812;28;20724;-52
2023/06/24 04:07:50;;;;;;;15.90;10.45;;;15.00;99.90;;;;;;5104377;28;20048;-56
2023/06/24 04:10:17;;;;;;;17.05;10.93;;;15.00;99.90;;;;;;5091475;28;20063;-56
2023/06/24 04:12:42;;;;;;;13.05;10.30;;;15.00;99.90;;;;;;5082016;28;20040;-55
2023/06/24 04:15:08;;;;;;;17.00;11.45;;;15.10;99.90;;;;;;5110430;28;20404;-55
2023/06/24 04:17:33;;;;;;;14.95;10.48;;;15.20;99.90;;;;;;5077282;28;20307;-55
2023/06/24 04:19:59;;;;;;;17.42;11.88;;;15.50;99.90;;;;;;5110294;28;20032;-55
2023/06/24 04:22:25;;;;;;;13.55;11.00;;;16.10;99.90;;;;;;5078465;28;20476;-55
2023/06/24 04:24:51;;;;;;;11.85;9.98;;;17.00;99.90;;;;;;5110604;28;20031;-55
2023/06/24 04:27:16;;;;;;;11.02;9.18;;;18.10;99.90;;;;;;5099425;28;20028;-56
2023/06/24 04:29:42;;;;;;;8.93;7.65;;;19.10;99.90;;;;;;5091082;28;20082;-55
2023/06/24 04:32:07;;;;;;;8.52;6.25;;;20.00;99.90;;;;;;5108655;28;20365;-55
2023/06/24 04:34:33;;;;;;;7.43;6.47;;;20.80;99.90;;;;;;5091294;28;20114;-54
2023/06/24 04:36:58;;;;;;;10.35;7.05;;;21.50;99.90;;;;;;5108320;28;20043;-56
2023/06/24 04:39:24;;;;;;;7.13;5.93;;;22.20;99.90;;;;;;5111279;28;20391;-55
2023/06/24 04:41:50;;;;;;;8.77;6.38;;;22.90;99.90;;;;;;5095666;28;20058;-56
2023/06/24 04:44:15;;;;;;;7.43;5.53;;;23.30;99.90;;;;;;5109673;28;20034;-56
2023/06/24 04:46:41;;;;;;;8.65;6.47;;;23.00;99.90;;;;;;5094368;28;20247;-53
2023/06/24 04:49:07;;;;;;;7.45;6.43;;;22.60;99.90;;;;;;5110777;28;20102;-56
2023/06/24 04:51:32;;;;;;;7.97;7.18;;;22.30;99.90;;;;;;5093159;28;20297;-54
2023/06/24 04:53:58;;;;;;;7.78;6.20;;;21.90;99.90;;;;;;5110670;28;20161;-55
2023/06/24 04:56:24;;;;;;;7.90;6.70;;;21.60;99.90;;;;;;5091747;28;20585;-52
2023/06/24 04:58:50;;;;;;;7.43;6.72;;;21.20;99.90;;;;;;5110958;28;20107;-55
2023/06/24 05:01:15;;;;;;;7.93;7.10;;;20.80;99.90;;;;;;5088941;28;20127;-56
2023/06/24 05:03:41;;;;;;;7.82;7.03;;;20.50;99.90;;;;;;5110697;28;20028;-55
2023/06/24 05:06:06;;;;;;;8.02;6.80;;;20.30;99.90;;;;;;5085561;28;20087;-53
2023/06/24 05:08:32;;;;;;;9.32;7.53;;;20.20;99.90;;;;;;5110593;28;20039;-55
2023/06/24 05:10:57;;;;;;;9.90;8.07;;;20.60;99.90;;;;;;5090611;28;20051;-54
2023/06/24 05:13:23;;;;;;;11.20;7.57;;;20.70;99.90;;;;;;5067570;28;20153;-57
2023/06/24 05:15:48;;;;;;;10.50;7.60;;;20.80;99.90;;;;;;5109089;28;20395;-55
2023/06/24 05:18:14;;;;;;;10.30;7.60;;;20.80;99.90;;;;;;5070684;28;20511;-56
2023/06/24 05:20:40;;;;;;;7.63;6.82;;;20.90;99.90;;;;;;5108705;28;20153;-55
2023/06/24 05:23:05;;;;;;;9.55;7.85;;;21.40;99.90;;;;;;5071835;28;20052;-54
2023/06/24 05:25:31;;;;;;;10.63;7.28;;;21.70;99.90;;;;;;5108789;28;20031;-55
2023/06/24 05:27:57;;;;;;;8.35;6.65;;;22.70;99.90;;;;;;5072607;28;20373;-56
2023/06/24 05:30:22;;;;;;;6.53;5.68;;;23.80;99.90;;;;;;5108615;28;20040;-57
2023/06/24 05:32:48;;;;;;;6.22;5.63;;;25.00;99.90;;;;;;5073759;28;20059;-56
2023/06/24 05:35:13;;;;;;;6.03;5.43;;;26.10;99.90;;;;;;5108626;28;20101;-57
2023/06/24 05:37:39;;;;;;;5.65;5.05;;;27.20;99.90;;;;;;5073792;28;20424;-54
2023/06/24 05:40:06;;;;;;;7.28;5.22;;;27.90;99.90;;;;;;5107648;28;20019;-56
2023/06/24 05:42:32;;;;;;;6.07;5.15;;;28.30;99.90;;;;;;5075878;28;20039;-54
2023/06/24 05:44:57;;;;;;;5.50;5.00;;;28.90;99.90;;;;;;5108270;28;20027;-57
2023/06/24 05:47:22;;;;;;;6.10;5.50;;;29.60;99.90;;;;;;5098879;28;20500;-56
2023/06/24 05:49:48;;;;;;;5.05;4.55;;;30.30;99.90;;;;;;5089862;28;20087;-57
2023/06/24 05:52:13;;;;;;;5.20;4.68;;;30.80;99.10;;;;;;5106760;28;20023;-57
2023/06/24 05:54:39;;;;;;;6.10;5.30;;;31.40;99.10;;;;;;5109697;28;20480;-57
2023/06/24 05:57:06;;;;;;;6.18;4.38;;;31.90;97.20;;;;;;5096316;28;20027;-56
2023/06/24 05:59:32;;;;;;;5.05;4.65;;;32.30;97.50;;;;;;5089343;28;20540;-57
2023/06/24 06:01:57;;;;;;;5.13;4.65;;;32.70;96.00;;;;;;5102485;28;20040;-57
2023/06/24 06:04:23;;;;;;;5.00;4.60;;;32.70;95.90;;;;;;5074303;28;20083;-57
2023/06/24 06:06:48;;;;;;;5.32;4.32;;;33.10;93.80;;;;;;5101531;28;20016;-55
2023/06/24 06:09:14;;;;;;;5.03;4.47;;;33.60;92.70;;;;;;5108457;28;20534;-56
2023/06/24 06:11:39;;;;;;;4.20;3.85;;;34.10;91.00;;;;;;5079002;28;20043;-57
2023/06/24 06:14:05;;;;;;;5.13;4.13;;;34.50;87.50;;;;;;5109555;28;20028;-55
2023/06/24 06:16:31;;;;;;;4.65;4.13;;;34.90;80.50;;;;;;5079288;28;20017;-57
2023/06/24 06:18:56;;;;;;;5.90;4.30;;;35.00;71.50;;;;;;5093500;28;20028;-58
2023/06/24 06:21:22;;;;;;;4.13;3.78;;;35.00;67.90;;;;;;5085202;28;20527;-57
2023/06/24 06:23:47;;;;;;;4.63;4.22;;;35.30;64.70;;;;;;5088944;28;20052;-57
2023/06/24 06:26:13;;;;;;;4.28;3.88;;;35.10;62.60;;;;;;5100150;28;20054;-56
2023/06/24 06:28:38;;;;;;;4.40;4.00;;;35.20;59.90;;;;;;5086426;28;20060;-58
2023/06/24 06:31:04;;;;;;;4.72;4.20;;;35.40;57.50;;;;;;5073006;28;20025;-58
2023/06/24 06:33:29;;;;;;;4.13;3.72;;;35.60;55.70;;;;;;5106723;28;20084;-57
2023/06/24 06:35:55;;;;;;;4.60;3.88;;;35.80;54.30;;;;;;5073515;28;20039;-58
2023/06/24 06:38:20;;;;;;;4.53;4.13;;;35.70;53.30;;;;;;5087697;28;20030;-57
2023/06/24 06:40:45;;;;;;;5.88;4.00;;;35.10;52.00;;;;;;5102691;28;20028;-57
2023/06/24 06:43:11;;;;;;;5.15;4.10;;;33.70;46.90;;;;;;5067741;28;20458;-57
2023/06/24 06:45:36;;;;;;;8.05;4.20;;;33.20;45.80;;;;;;5104668;28;20106;-56
2023/06/24 06:48:07;;;;;;;4.03;3.72;;;33.70;43.40;;;;;;5067675;28;20087;-56
2023/06/24 06:50:32;;;;;;;3.75;3.45;;;34.00;40.90;;;;;;5068023;28;20044;-57
2023/06/24 06:52:58;;;;;;;3.83;3.40;;;35.00;39.80;;;;;;5069695;28;20047;-56
2023/06/24 06:55:23;;;;;;;4.10;3.40;;;35.80;37.70;;;;;;5101427;28;20030;-57
2023/06/24 06:57:48;;;;;;;3.40;3.10;;;36.10;37.50;;;;;;5091549;28;20043;-57
2023/06/24 07:00:14;;;;;;;3.75;3.30;;;36.10;36.50;;;;;;5084218;28;20051;-57
2023/06/24 07:02:40;;;;;;;3.80;3.50;;;36.70;36.10;;;;;;5111710;28;20030;-57
2023/06/24 07:05:06;;;;;;;4.10;3.17;;;36.70;31.40;;;;;;5084860;28;20024;-57
2023/06/24 07:07:32;;;;;;;3.42;3.15;;;36.50;35.60;;;;;;5105053;28;20043;-58
2023/06/24 07:09:58;;;;;;;3.58;3.28;;;35.90;35.80;;;;;;5080896;28;20040;-59
2023/06/24 07:12:23;;;;;;;3.55;3.25;;;36.10;34.30;;;;;;5111304;28;20028;-57
2023/06/24 07:14:50;;;;;;;4.10;3.20;;;36.60;32.10;;;;;;5077015;28;20029;-58
2023/06/24 07:17:15;;;;;;;3.45;3.05;;;37.10;30.10;;;;;;5089371;28;20028;-58
2023/06/24 07:19:41;;;;;;;3.42;3.13;;;37.50;30.90;;;;;;5110245;28;20054;-58
2023/06/24 07:22:06;;;;;;;3.58;2.80;;;38.30;30.40;;;;;;5081439;28;20036;-58
2023/06/24 07:24:32;;;;;;;3.17;2.97;;;39.00;28.60;;;;;;5081315;28;20083;-58
2023/06/24 07:26:57;;;;;;;3.30;3.00;;;39.40;27.80;;;;;;5083504;28;20032;-58
2023/06/24 07:29:22;;;;;;;3.63;3.03;;;39.60;26.60;;;;;;5084037;28;20048;-58
2023/06/24 07:31:48;;;;;;;4.45;3.13;;;39.60;26.70;;;;;;5099567;28;20069;-58
2023/06/24 07:34:13;;;;;;;3.70;2.90;;;39.30;27.20;;;;;;5086861;28;20028;-58
2023/06/24 07:36:39;;;;;;;3.30;3.00;;;39.30;27.00;;;;;;5096831;28;20036;-58
2023/06/24 07:39:05;;;;;;;3.40;2.75;;;39.80;26.30;;;;;;5075500;28;20028;-58
2023/06/24 07:41:31;;;;;;;3.22;2.70;;;40.20;25.50;;;;;;5088618;28;20552;-58
2023/06/24 07:43:57;;;;;;;4.68;3.20;;;40.40;24.60;;;;;;5110130;28;20043;-58
2023/06/24 07:46:22;;;;;;;3.08;2.75;;;39.70;24.10;;;;;;5080714;28;20117;-58
2023/06/24 07:48:48;;;;;;;6.57;3.03;;;39.00;23.80;;;;;;5087825;28;20024;-56
2023/06/24 07:51:13;;;;;;;3.78;2.80;;;38.20;24.20;;;;;;5110100;28;20603;-58
2023/06/24 07:53:39;;;;;;;3.10;2.80;;;37.90;23.50;;;;;;5073096;28;20028;-58
2023/06/24 07:56:04;;;;;;;4.30;2.50;;;38.20;21.20;;;;;;5088444;28;20115;-59
2023/06/24 07:58:30;;;;;;;5.00;3.17;;;38.30;22.10;;;;;;5109700;28;20364;-59
2023/06/24 08:00:55;;;;;;;3.25;2.83;;;38.00;22.60;;;;;;5091927;28;20037;-58
2023/06/24 08:03:21;;;;;;;4.50;2.92;;;36.70;14.90;;;;;;5085667;28;20591;-58
2023/06/24 08:05:47;;;;;;;28.55;6.38;;;35.30;23.50;;;;;;5090633;28;20032;-58
2023/06/24 08:08:12;;;;;;;10.55;3.70;;;34.10;24.00;;;;;;5087978;28;20036;-58
2023/06/24 08:10:37;;;;;;;3.92;3.17;;;33.60;24.20;;;;;;5108652;28;20038;-58
2023/06/24 08:13:03;;;;;;;4.22;3.55;;;34.60;17.80;;;;;;5092772;28;20507;-58
2023/06/24 08:15:28;;;;;;;3.70;2.95;;;34.70;22.00;;;;;;5109367;28;20081;-57
2023/06/24 08:17:55;;;;;;;3.90;2.92;;;34.20;22.50;;;;;;5088847;28;20373;-58
2023/06/24 08:20:21;;;;;;;3.47;3.15;;;34.60;22.70;;;;;;5090435;28;20028;-57
2023/06/24 08:22:47;;;;;;;6.18;2.70;;;35.30;22.30;;;;;;5102340;28;20047;-57
2023/06/24 08:25:12;;;;;;;7.25;2.85;;;35.80;20.10;;;;;;5090213;28;20491;-58
2023/06/24 08:27:38;;;;;;;5.13;3.25;;;36.20;22.60;;;;;;5097430;28;20132;-58
2023/06/24 08:30:05;;;;;;;3.17;2.88;;;36.60;22.20;;;;;;5085629;28;20119;-58
2023/06/24 08:32:31;;;;;;;4.65;2.25;;;37.00;21.50;;;;;;5104244;28;20020;-58
2023/06/24 08:34:56;;;;;;;3.92;2.33;;;37.30;22.80;;;;;;5106381;28;20039;-58
2023/06/24 08:37:21;;;;;;;4.28;2.30;;;37.20;22.60;;;;;;5103785;28;20082;-58
2023/06/24 08:39:47;;;;;;;4.22;2.40;;;36.70;20.00;;;;;;5069624;28;20086;-58
2023/06/24 08:42:12;;;;;;;3.20;2.75;;;35.90;21.80;;;;;;5105200;28;20030;-58
2023/06/24 08:44:38;;;;;;;2.80;2.50;;;35.40;21.50;;;;;;5069463;28;20064;-57
2023/06/24 08:47:04;;;;;;;2.25;2.05;;;35.10;22.40;;;;;;5108510;28;20076;-57
2023/06/24 08:49:30;;;;;;;2.63;2.42;;;34.60;22.00;;;;;;5077148;28;20057;-58
2023/06/24 08:52:11;;;;;;;4.30;2.88;;;34.40;22.10;;;;;;5101092;28;20055;-59
2023/06/24 08:54:40;;;;;;;5.07;3.03;;;34.50;23.70;;;;;;5069238;28;20029;-56
2023/06/24 08:57:07;;;;;;;3.00;2.75;;;34.10;22.80;;;;;;5090913;28;20032;-58
2023/06/24 08:59:37;;;;;;;2.67;2.28;;;33.60;22.70;;;;;;5088183;28;20188;-58
2023/06/24 09:02:03;;;;;;;3.42;2.38;;;33.10;19.70;;;;;;5095846;28;20098;-58
2023/06/24 09:04:28;;;;;;;2.92;2.38;;;32.60;21.30;;;;;;5087931;28;20107;-52
2023/06/24 09:06:54;;;;;;;3.58;2.92;;;32.50;21.60;;;;;;5092479;28;20028;-57
2023/06/24 09:09:21;;;;;;;2.40;2.15;;;32.30;23.00;;;;;;5085575;28;20037;-58
2023/06/24 09:11:58;;;;;;;2.72;2.53;;;32.20;24.00;;;;;;5095991;28;20033;-56
2023/06/24 09:14:30;;;;;;;4.00;2.63;;;32.30;13.10;;;;;;5069113;28;20047;-57
2023/06/24 09:17:01;;;;;;;2.83;2.53;;;32.20;20.10;;;;;;5089061;28;20028;-58
2023/06/24 09:19:29;;;;;;;2.83;2.30;;;32.30;24.00;;;;;;5072190;28;20056;-57
2023/06/24 09:22:01;;;;;;;4.05;2.58;;;32.20;25.90;;;;;;5072720;28;20024;-58
2023/06/24 09:24:30;;;;;;;5.43;2.30;;;32.10;26.00;;;;;;5084981;28;20020;-58
2023/06/24 09:26:58;;;;;;;3.00;2.70;;;32.10;25.30;;;;;;5099410;28;20036;-57
2023/06/24 09:29:27;;;;;;;3.10;2.67;;;32.10;23.20;;;;;;5100379;28;20073;-57
2023/06/24 09:31:53;;;;;;;3.03;2.42;;;31.90;23.30;;;;;;5084150;28;20046;-56
2023/06/24 09:34:19;;;;;;;5.32;2.80;;;31.70;21.50;;;;;;5074673;28;20025;-57
2023/06/24 09:36:50;;;;;;;3.00;2.78;;;31.40;21.50;;;;;;5091646;28;20053;-53
2023/06/24 09:39:16;;;;;;;3.50;2.95;;;31.20;21.60;;;;;;5090178;28;20024;-53
2023/06/24 09:41:42;;;;;;;5.30;2.33;;;31.10;21.20;;;;;;5108217;28;20441;-54
2023/06/24 09:44:10;;;;;;;2.53;2.33;;;31.20;22.30;;;;;;5072792;28;20489;-53
2023/06/24 09:46:37;;;;;;;3.25;2.60;;;31.30;21.50;;;;;;5107999;28;20019;-54
2023/06/24 09:49:06;;;;;;;3.67;2.67;;;31.40;23.00;;;;;;5073675;28;20078;-54
2023/06/24 09:51:39;;;;;;;2.95;2.65;;;31.50;20.70;;;;;;5108410;28;20035;-54
2023/06/24 09:54:09;;;;;;;3.63;2.85;;;31.40;19.40;;;;;;5073295;28;20028;-54
2023/06/24 09:56:39;;;;;;;3.45;3.15;;;31.00;15.00;;;;;;5096899;28;20028;-53
2023/06/24 09:59:06;;;;;;;6.18;3.30;;;30.40;17.20;;;;;;5066308;28;20035;-50
2023/06/24 10:01:38;;;;;;;3.08;2.78;;;30.30;17.80;;;;;;5107660;28;20415;-53
2023/06/24 10:04:04;;;;;;;3.47;2.70;;;30.30;18.40;;;;;;5066269;28;20480;-53
2023/06/24 10:06:30;;;;;;;4.05;2.85;;;30.10;18.00;;;;;;5081934;28;20047;-53
2023/06/24 10:08:56;;;;;;;3.63;2.92;;;29.90;17.90;;;;;;5091931;28;20036;-49
2023/06/24 10:11:21;;;;;;;4.45;2.92;;;29.80;17.90;;;;;;5069358;28;20033;-53
2023/06/24 10:13:47;;;;;;;3.60;2.90;;;29.70;17.30;;;;;;5098050;28;20713;-52
2023/06/24 10:16:15;;;;;;;4.50;3.10;;;29.50;17.20;;;;;;5068254;28;20143;-54
2023/06/24 10:18:41;;;;;;;5.47;2.55;;;29.40;17.60;;;;;;5108004;28;20020;-53
2023/06/24 10:21:08;;;;;;;3.10;2.80;;;29.20;17.70;;;;;;5068042;28;20055;-53
2023/06/24 10:23:41;;;;;;;3.65;2.97;;;29.00;16.50;;;;;;5106406;28;20400;-54
2023/06/24 10:26:17;;;;;;;3.50;3.17;;;28.60;16.50;;;;;;5067610;28;20116;-53
2023/06/24 10:29:08;;;;;;;3.45;3.03;;;28.30;17.10;;;;;;5069681;28;20031;-50
2023/06/24 10:31:40;;;;;;;3.55;3.25;;;28.00;14.10;;;;;;5067823;28;20043;-52
2023/06/24 10:34:30;;;;;;;3.90;3.05;;;27.80;17.00;;;;;;5098334;28;20025;-51
2023/06/24 10:37:10;;;;;;;7.47;3.42;;;27.60;16.60;;;;;;5068029;28;20036;-50
2023/06/24 10:39:46;;;;;;;3.20;2.90;;;27.50;18.40;;;;;;5073075;28;20044;-53
2023/06/24 10:42:26;;;;;;;3.85;3.30;;;27.40;18.50;;;;;;5079275;28;20021;-54
2023/06/24 10:44:54;;;;;;;3.60;3.30;;;27.50;17.90;;;;;;5065994;28;20039;-54
2023/06/24 10:47:21;;;;;;;3.28;2.97;;;27.20;19.20;;;;;;5067923;28;20024;-51
2023/06/24 10:49:47;;;;;;;4.07;3.47;;;27.00;19.30;;;;;;5070445;28;20097;-54
2023/06/24 10:52:13;;;;;;;4.72;3.00;;;26.90;19.20;;;;;;5067918;28;20036;-52
2023/06/24 10:54:40;;;;;;;4.90;3.67;;;26.80;20.00;;;;;;5072189;28;20034;-52
2023/06/24 10:57:07;;;;;;;4.90;3.40;;;26.70;19.90;;;;;;5075557;28;20032;-53
2023/06/24 10:59:35;;;;;;;3.40;2.92;;;26.60;19.60;;;;;;5078394;28;20478;-54
2023/06/24 11:02:01;;;;;;;4.13;2.75;;;26.60;20.20;;;;;;5068558;28;20139;-53
2023/06/24 11:04:27;;;;;;;5.07;3.28;;;26.60;20.40;;;;;;5070307;28;20115;-49
2023/06/24 11:07:02;;;;;;;3.88;3.45;;;26.60;20.50;;;;;;5096463;28;20036;-53
2023/06/24 11:09:28;;;;;;;3.55;3.25;;;26.40;18.30;;;;;;5065702;28;20040;-52
2023/06/24 11:11:54;;;;;;;4.97;3.72;;;26.40;21.00;;;;;;5104237;28;20031;-48
2023/06/24 11:14:20;;;;;;;3.80;3.50;;;26.20;20.00;;;;;;5066814;28;20064;-52
2023/06/24 11:16:45;;;;;;;5.38;3.28;;;26.00;21.00;;;;;;5091494;28;20032;-51
2023/06/24 11:19:11;;;;;;;4.18;3.30;;;25.90;21.50;;;;;;5082749;28;20125;-52
2023/06/24 11:21:36;;;;;;;4.35;3.17;;;25.90;21.00;;;;;;5090751;28;20446;-52
2023/06/24 11:24:03;;;;;;;3.53;3.22;;;25.80;21.60;;;;;;5076516;28;20036;-52
2023/06/24 11:26:28;;;;;;;4.85;3.95;;;25.80;21.30;;;;;;5095306;28;20035;-52
2023/06/24 11:28:54;;;;;;;4.18;3.65;;;25.70;19.80;;;;;;5081407;28;20051;-50
2023/06/24 11:31:27;;;;;;;3.67;3.35;;;25.50;21.10;;;;;;5084880;28;20074;-52
2023/06/24 11:33:52;;;;;;;4.80;3.72;;;25.50;21.30;;;;;;5075691;28;20047;-49
2023/06/24 11:36:21;;;;;;;3.47;3.17;;;25.60;22.20;;;;;;5087672;28;20032;-50
2023/06/24 11:38:47;;;;;;;4.82;3.80;;;25.60;21.80;;;;;;5072715;28;20033;-50
2023/06/24 11:41:13;;;;;;;3.92;3.63;;;25.50;21.30;;;;;;5087998;28;20059;-52
2023/06/24 11:43:46;;;;;;;5.93;3.78;;;25.40;22.90;;;;;;5092884;28;20040;-54
2023/06/24 11:46:24;;;;;;;4.03;3.72;;;25.40;22.20;;;;;;5095269;28;20044;-50
2023/06/24 11:48:50;;;;;;;4.22;3.83;;;25.40;23.00;;;;;;5073790;28;20073;-50
2023/06/24 11:51:15;;;;;;;5.28;3.85;;;25.50;23.60;;;;;;5090378;28;20044;-52
2023/06/24 11:53:47;;;;;;;4.50;3.85;;;25.40;22.80;;;;;;5077057;28;20048;-52
2023/06/24 11:56:13;;;;;;;4.78;3.47;;;25.50;23.10;;;;;;5068855;28;20032;-52
2023/06/24 11:58:39;;;;;;;4.50;3.38;;;25.50;23.60;;;;;;5086144;28;20074;-52
2023/06/24 12:01:08;;;;;;;3.47;3.10;;;25.60;23.70;;;;;;5100383;28;20667;-49
2023/06/24 12:03:34;;;;;;;6.82;3.25;;;25.60;23.90;;;;;;5087371;28;20127;-54
2023/06/24 12:06:00;;;;;;;4.72;3.40;;;25.60;23.90;;;;;;5084418;28;20074;-53
2023/06/24 12:08:25;;;;;;;4.30;3.22;;;25.70;24.00;;;;;;5095087;28;20090;-54
2023/06/24 12:10:51;;;;;;;4.38;3.00;;;25.70;23.80;;;;;;5088224;28;20593;-51
2023/06/24 12:13:17;;;;;;;3.53;3.20;;;25.70;23.90;;;;;;5090559;28;20035;-52
2023/06/24 12:15:43;;;;;;;3.97;3.25;;;25.70;24.30;;;;;;5079340;28;20032;-51
2023/06/24 12:18:09;;;;;;;5.35;3.80;;;25.70;24.40;;;;;;5090639;28;20035;-53
2023/06/24 12:20:36;;;;;;;5.93;3.20;;;25.70;24.00;;;;;;5083236;28;20067;-54
2023/06/24 12:23:03;;;;;;;10.32;3.65;;;25.60;23.70;;;;;;5098085;28;20035;-52
2023/06/24 12:25:29;;;;;;;4.00;3.58;;;25.60;24.00;;;;;;5083883;28;20116;-52
2023/06/24 12:27:54;;;;;;;4.18;3.20;;;25.50;24.90;;;;;;5078906;28;20927;-55
2023/06/24 12:30:20;;;;;;;5.38;3.17;;;25.40;24.40;;;;;;5088345;28;20555;-51
2023/06/24 12:32:46;;;;;;;4.57;3.10;;;25.30;24.90;;;;;;5071447;28;20146;-49
2023/06/24 12:35:12;;;;;;;3.40;3.10;;;25.30;24.30;;;;;;5075596;28;20119;-51
2023/06/24 12:37:38;;;;;;;3.60;3.08;;;25.40;25.30;;;;;;5090111;28;20028;-49
2023/06/24 12:40:04;;;;;;;4.60;3.28;;;25.40;25.40;;;;;;5078602;28;20079;-51
2023/06/24 12:42:30;;;;;;;6.93;3.72;;;25.40;23.10;;;;;;5072344;28;20058;-50
2023/06/24 12:44:55;;;;;;;6.07;3.85;;;25.30;25.00;;;;;;5077691;28;20016;-49
2023/06/24 12:47:21;;;;;;;3.60;3.22;;;25.30;25.00;;;;;;5083966;28;20028;-53